createdAt,value
2022-11-01T00:00:12.070Z,96.35
2022-11-01T00:02:58.386Z,96.01
2022-11-01T00:05:46.069Z,95.92
2022-11-01T00:08:31.010Z,96.62
2022-11-01T00:11:18.020Z,96.20
2022-11-01T00:14:03.373Z,95.89
2022-11-01T00:16:49.137Z,95.88
2022-11-01T00:19:34.416Z,96.39
2022-11-01T00:22:19.429Z,96.40
2022-11-01T00:25:04.952Z,95.86
2022-11-01T00:27:49.998Z,96.31
2022-11-01T00:30:39.538Z,96.25
2022-11-01T00:33:25.611Z,96.49
2022-11-01T00:36:11.086Z,96.33
2022-11-01T00:38:56.254Z,95.91
2022-11-01T00:41:41.827Z,95.32
2022-11-01T00:44:27.185Z,95.05
2022-11-01T00:47:12.504Z,94.95
2022-11-01T00:49:57.485Z,95.33
2022-11-01T00:52:42.566Z,95.58
2022-11-01T00:55:27.591Z,95.46
2022-11-01T00:58:13.185Z,95.62
2022-11-01T01:00:58.772Z,95.52
2022-11-01T01:03:44.282Z,95.40
2022-11-01T01:06:29.548Z,95.54
2022-11-01T01:09:15.297Z,95.82
2022-11-01T01:12:00.514Z,95.62
2022-11-01T01:14:45.556Z,95.16
2022-11-01T01:17:33.726Z,94.88
2022-11-01T01:20:20.484Z,94.83
2022-11-01T01:23:05.718Z,94.93
2022-11-01T01:25:51.474Z,94.79
2022-11-01T01:28:41.847Z,94.85
2022-11-01T01:31:30.077Z,94.27
2022-11-01T01:34:15.011Z,94.12
2022-11-01T01:37:00.383Z,94.14
2022-11-01T01:39:46.169Z,93.88
2022-11-01T01:42:38.953Z,94.29
2022-11-01T01:45:24.163Z,94.29
2022-11-01T01:48:19.099Z,93.83
2022-11-01T01:51:08.915Z,93.91
2022-11-01T01:53:55.743Z,93.43
2022-11-01T01:56:41.030Z,93.12
2022-11-01T01:59:26.910Z,93.03
2022-11-01T02:02:13.417Z,92.55
2022-11-01T02:05:03.925Z,92.61
2022-11-01T02:07:49.346Z,92.21
2022-11-01T02:10:34.934Z,92.45
2022-11-01T02:13:20.112Z,92.47
2022-11-01T02:16:17.290Z,91.88
2022-11-01T02:19:35.276Z,91.85
2022-11-01T02:22:33.330Z,91.63
2022-11-01T02:25:21.887Z,91.56
2022-11-01T02:28:35.842Z,91.14
2022-11-01T02:31:49.044Z,90.75
2022-11-01T02:34:50.256Z,90.75
2022-11-01T02:37:43.944Z,90.40
2022-11-01T02:40:46.577Z,90.64
2022-11-01T02:43:59.975Z,90.29
2022-11-01T02:46:47.280Z,90.06
2022-11-01T02:49:38.347Z,89.98
2022-11-01T02:52:25.345Z,90.40
2022-11-01T02:55:20.100Z,90.37
2022-11-01T02:58:24.992Z,90.19
2022-11-01T03:01:15.791Z,90.27
2022-11-01T03:04:02.192Z,90.28
2022-11-01T03:06:56.248Z,90.36
2022-11-01T03:09:42.270Z,89.94
2022-11-01T03:12:32.737Z,89.70
2022-11-01T03:15:27.128Z,89.60
2022-11-01T03:18:21.327Z,89.37
2022-11-01T03:21:11.800Z,89.40
2022-11-01T03:24:11.609Z,89.37
2022-11-01T03:27:26.268Z,89.38
2022-11-01T03:30:14.709Z,89.17
2022-11-01T03:33:00.402Z,89.29
2022-11-01T03:35:50.164Z,89.68
2022-11-01T03:38:39.875Z,89.41
2022-11-01T03:41:26.916Z,89.03
2022-11-01T03:44:13.552Z,89.27
2022-11-01T03:46:59.030Z,89.63
2022-11-01T03:49:44.013Z,89.30
2022-11-01T03:52:29.219Z,89.16
2022-11-01T03:55:15.681Z,89.46
2022-11-01T03:58:01.171Z,89.71
2022-11-01T04:00:47.187Z,89.87
2022-11-01T04:03:32.664Z,89.97
2022-11-01T04:06:17.578Z,90.15
2022-11-01T04:09:02.511Z,90.25
2022-11-01T04:11:47.855Z,90.65
2022-11-01T04:14:32.756Z,91.39
2022-11-01T04:17:18.299Z,91.62
2022-11-01T04:20:04.060Z,91.79
2022-11-01T04:22:49.144Z,91.61
2022-11-01T04:25:34.367Z,91.78
2022-11-01T04:28:19.548Z,91.92
2022-11-01T04:31:05.533Z,91.94
2022-11-01T04:33:50.458Z,92.18
2022-11-01T04:36:37.303Z,92.23
2022-11-01T04:39:22.611Z,91.95
2022-11-01T04:42:07.652Z,91.17
2022-11-01T04:44:52.857Z,90.46
2022-11-01T04:47:37.693Z,89.96
2022-11-01T04:50:22.557Z,89.81
2022-11-01T04:53:07.932Z,89.76
2022-11-01T04:55:53.148Z,90.12
2022-11-01T04:58:43.064Z,89.91
2022-11-01T05:01:31.355Z,89.88
2022-11-01T05:04:16.553Z,90.23
2022-11-01T05:07:01.972Z,90.27
2022-11-01T05:09:46.975Z,90.63
2022-11-01T05:12:32.502Z,90.65
2022-11-01T05:15:18.008Z,90.69
2022-11-01T05:18:04.124Z,90.61
2022-11-01T05:20:49.143Z,90.57
2022-11-01T05:23:33.996Z,90.34
2022-11-01T05:26:18.826Z,90.15
2022-11-01T05:29:08.714Z,90.18
2022-11-01T05:31:54.504Z,89.98
2022-11-01T05:34:39.714Z,90.03
2022-11-01T05:37:28.124Z,89.69
2022-11-01T05:40:13.575Z,89.99
2022-11-01T05:42:58.994Z,89.93
2022-11-01T05:45:44.237Z,89.62
2022-11-01T05:48:29.646Z,89.76
2022-11-01T05:51:14.695Z,89.58
2022-11-01T05:53:59.676Z,89.54
2022-11-01T05:56:44.746Z,89.67
2022-11-01T05:59:29.615Z,89.72
2022-11-01T06:02:15.148Z,89.40
2022-11-01T06:05:03.068Z,89.15
2022-11-01T06:07:48.505Z,88.84
2022-11-01T06:10:34.432Z,89.01
2022-11-01T06:13:19.925Z,88.94
2022-11-01T06:16:06.179Z,88.52
2022-11-01T06:18:51.219Z,88.40
2022-11-01T06:21:36.620Z,88.50
2022-11-01T06:24:21.628Z,88.35
2022-11-01T06:27:11.458Z,88.87
2022-11-01T06:29:57.607Z,88.50
2022-11-01T06:32:42.918Z,88.73
2022-11-01T06:35:28.369Z,89.11
2022-11-01T06:38:13.292Z,89.59
2022-11-01T06:40:58.402Z,89.77
2022-11-01T06:43:43.754Z,89.82
2022-11-01T06:46:29.035Z,89.70
2022-11-01T06:49:18.869Z,90.27
2022-11-01T06:52:05.242Z,90.34
2022-11-01T06:54:50.593Z,90.94
2022-11-01T06:57:36.087Z,90.96
2022-11-01T07:00:21.312Z,91.24
2022-11-01T07:03:10.120Z,91.62
2022-11-01T07:05:55.679Z,91.98
2022-11-01T07:08:40.504Z,92.18
2022-11-01T07:11:31.216Z,92.62
2022-11-01T07:14:16.940Z,92.79
2022-11-01T07:17:01.845Z,92.56
2022-11-01T07:19:47.463Z,92.24
2022-11-01T07:22:32.768Z,92.66
2022-11-01T07:25:17.689Z,92.77
2022-11-01T07:28:03.366Z,93.01
2022-11-01T07:30:53.345Z,92.46
2022-11-01T07:33:38.730Z,92.52
2022-11-01T07:36:23.622Z,92.10
2022-11-01T07:39:08.449Z,91.92
2022-11-01T07:41:53.567Z,92.28
2022-11-01T07:44:38.607Z,92.28
2022-11-01T07:47:23.456Z,91.76
2022-11-01T07:50:08.724Z,91.57
2022-11-01T07:53:05.197Z,91.79
2022-11-01T07:55:50.966Z,91.54
2022-11-01T07:58:35.880Z,90.99
2022-11-01T08:01:20.871Z,91.62
2022-11-01T08:04:06.210Z,91.42
2022-11-01T08:06:52.330Z,91.82
2022-11-01T08:09:37.569Z,90.55
2022-11-01T08:12:22.614Z,90.27
2022-11-01T08:15:08.097Z,89.18
2022-11-01T08:17:55.807Z,90.41
2022-11-01T08:20:41.146Z,90.30
2022-11-01T08:23:26.381Z,87.18
2022-11-01T08:26:11.819Z,83.53
2022-11-01T08:28:56.648Z,82.51
2022-11-01T08:31:41.905Z,81.80
2022-11-01T08:34:27.370Z,82.31
2022-11-01T08:37:12.657Z,81.15
2022-11-01T08:39:57.594Z,80.42
2022-11-01T08:42:42.379Z,78.68
2022-11-01T08:45:27.875Z,78.15
2022-11-01T08:48:13.665Z,77.21
2022-11-01T08:50:58.632Z,77.08
2022-11-01T08:53:44.099Z,76.39
2022-11-01T08:56:29.137Z,75.15
2022-11-01T08:59:14.099Z,76.91
2022-11-01T09:01:59.569Z,75.52
2022-11-01T09:04:44.809Z,75.62
2022-11-01T09:07:30.177Z,70.16
2022-11-01T09:10:16.504Z,68.81
2022-11-01T09:13:02.463Z,68.37
2022-11-01T09:15:48.325Z,64.71
2022-11-01T09:18:33.871Z,64.18
2022-11-01T09:21:18.984Z,64.28
2022-11-01T09:24:04.496Z,63.99
2022-11-01T09:26:49.736Z,63.38
2022-11-01T09:29:35.248Z,64.24
2022-11-01T09:32:20.519Z,64.84
2022-11-01T09:35:06.291Z,65.19
2022-11-01T09:37:57.605Z,65.59
2022-11-01T09:40:44.375Z,65.59
2022-11-01T09:43:32.731Z,64.20
2022-11-01T09:49:20.897Z,65.11
2022-11-01T09:52:06.484Z,65.29
2022-11-01T09:54:51.744Z,64.44
2022-11-01T09:57:44.126Z,64.07
2022-11-01T10:00:35.204Z,64.01
2022-11-01T10:03:35.933Z,64.12
2022-11-01T10:06:27.714Z,64.00
2022-11-01T10:09:37.960Z,64.57
2022-11-01T10:12:40.867Z,65.34
2022-11-01T10:16:00.157Z,66.23
2022-11-01T10:19:08.273Z,65.10
2022-11-01T10:21:58.624Z,64.42
2022-11-01T10:24:49.828Z,64.38
2022-11-01T10:27:55.324Z,64.25
2022-11-01T10:30:46.796Z,64.69
2022-11-01T10:33:35.162Z,64.35
2022-11-01T10:36:26.819Z,62.80
2022-11-01T10:42:41.147Z,62.90
2022-11-01T10:45:26.860Z,63.47
2022-11-01T10:48:19.685Z,62.64
2022-11-01T10:51:07.942Z,63.43
2022-11-01T10:53:58.181Z,62.72
2022-11-01T10:56:46.679Z,62.82
2022-11-01T10:59:40.181Z,62.58
2022-11-01T11:02:45.950Z,62.56
2022-11-01T11:05:32.742Z,63.08
2022-11-01T11:08:20.808Z,62.44
2022-11-01T11:11:12.213Z,63.23
2022-11-01T11:14:00.099Z,62.59
2022-11-01T11:16:49.999Z,61.62
2022-11-01T11:19:36.449Z,61.25
2022-11-01T11:22:23.041Z,62.19
2022-11-01T11:25:22.173Z,61.24
2022-11-01T11:28:22.389Z,61.22
2022-11-01T11:31:36.957Z,61.09
2022-11-01T11:34:33.320Z,61.39
2022-11-01T11:37:22.085Z,60.78
2022-11-01T11:40:17.309Z,62.30
2022-11-01T11:43:21.469Z,61.04
2022-11-01T11:46:16.671Z,60.78
2022-11-01T11:49:02.325Z,60.23
2022-11-01T11:51:47.350Z,60.53
2022-11-01T11:54:33.589Z,60.12
2022-11-01T11:57:24.581Z,60.65
2022-11-01T12:00:22.231Z,61.14
2022-11-01T12:03:10.583Z,60.34
2022-11-01T12:06:01.759Z,60.26
2022-11-01T12:08:50.215Z,60.44
2022-11-01T12:11:44.758Z,60.75
2022-11-01T12:14:33.234Z,59.85
2022-11-01T12:17:45.148Z,60.41
2022-11-01T12:20:36.630Z,60.89
2022-11-01T12:23:40.061Z,59.77
2022-11-01T12:26:27.239Z,60.19
2022-11-01T12:29:52.095Z,60.85
2022-11-01T12:32:58.064Z,60.20
2022-11-01T12:35:45.038Z,60.33
2022-11-01T12:39:03.537Z,59.71
2022-11-01T12:41:53.877Z,60.10
2022-11-01T12:44:47.955Z,59.06
2022-11-01T12:47:46.525Z,59.42
2022-11-01T12:50:49.940Z,58.81
2022-11-01T12:53:43.199Z,59.03
2022-11-01T12:56:28.418Z,60.23
2022-11-01T12:59:20.754Z,58.70
2022-11-01T13:02:30.853Z,60.14
2022-11-01T13:05:21.416Z,59.68
2022-11-01T13:08:16.361Z,58.89
2022-11-01T13:11:25.046Z,58.60
2022-11-01T13:14:47.559Z,58.12
2022-11-01T13:18:02.052Z,57.66
2022-11-01T13:20:47.078Z,57.64
2022-11-01T13:23:49.044Z,57.18
2022-11-01T13:26:40.757Z,57.39
2022-11-01T13:30:01.484Z,57.60
2022-11-01T13:32:58.381Z,57.69
2022-11-01T13:36:16.263Z,58.87
2022-11-01T13:39:13.487Z,58.35
2022-11-01T13:42:11.650Z,58.89
2022-11-01T13:45:28.898Z,58.22
2022-11-01T13:48:44.454Z,58.70
2022-11-01T13:51:53.979Z,57.93
2022-11-01T13:54:54.318Z,57.56
2022-11-01T13:57:44.866Z,56.78
2022-11-01T14:00:43.208Z,57.23
2022-11-01T14:03:33.147Z,58.59
2022-11-01T14:06:26.955Z,57.81
2022-11-01T14:09:24.513Z,58.31
2022-11-01T14:12:29.050Z,58.14
2022-11-01T14:15:21.718Z,57.55
2022-11-01T14:18:08.152Z,57.69
2022-11-01T14:20:54.484Z,58.40
2022-11-01T14:23:42.619Z,58.30
2022-11-01T14:26:50.444Z,58.15
2022-11-01T14:29:35.398Z,58.11
2022-11-01T14:32:23.901Z,57.28
2022-11-01T14:35:12.140Z,57.12
2022-11-01T14:38:02.247Z,59.13
2022-11-01T14:40:51.688Z,58.31
2022-11-01T14:43:51.394Z,58.35
2022-11-01T14:46:46.623Z,58.73
2022-11-01T14:49:44.092Z,58.74
2022-11-01T14:52:41.392Z,58.65
2022-11-01T14:55:34.829Z,59.74
2022-11-01T14:58:22.856Z,59.62
2022-11-01T15:01:13.517Z,59.42
2022-11-01T15:04:00.320Z,61.38
2022-11-01T15:06:45.403Z,60.53
2022-11-01T15:09:31.857Z,60.27
2022-11-01T15:12:17.131Z,60.40
2022-11-01T15:15:03.297Z,60.06
2022-11-01T15:18:15.946Z,60.70
2022-11-01T15:21:01.206Z,61.67
2022-11-01T15:23:48.504Z,62.33
2022-11-01T15:26:33.955Z,62.95
2022-11-01T15:29:22.804Z,62.54
2022-11-01T15:32:22.384Z,63.34
2022-11-01T15:35:21.945Z,62.87
2022-11-01T15:38:20.791Z,63.26
2022-11-01T15:41:20.601Z,63.73
2022-11-01T15:44:06.415Z,63.54
2022-11-01T15:46:55.288Z,63.39
2022-11-01T15:50:02.860Z,63.63
2022-11-01T15:52:48.311Z,63.56
2022-11-01T15:55:37.711Z,63.79
2022-11-01T15:58:30.120Z,64.17
2022-11-01T16:01:20.185Z,64.33
2022-11-01T16:04:09.939Z,64.62
2022-11-01T16:07:02.604Z,64.65
2022-11-01T16:09:57.710Z,64.56
2022-11-01T16:12:45.363Z,64.54
2022-11-01T16:15:32.556Z,64.88
2022-11-01T16:18:24.115Z,65.39
2022-11-01T16:21:18.420Z,66.03
2022-11-01T16:24:11.649Z,66.05
2022-11-01T16:26:59.460Z,66.31
2022-11-01T16:29:47.599Z,66.40
2022-11-01T16:32:33.076Z,66.32
2022-11-01T16:36:07.986Z,66.23
2022-11-01T16:38:53.767Z,66.27
2022-11-01T16:41:41.025Z,66.49
2022-11-01T16:44:26.672Z,66.12
2022-11-01T16:47:16.258Z,66.09
2022-11-01T16:50:01.224Z,66.19
2022-11-01T16:52:46.942Z,66.17
2022-11-01T16:55:33.579Z,65.89
2022-11-01T16:58:26.384Z,65.72
2022-11-01T17:01:20.942Z,65.70
2022-11-01T17:04:06.364Z,65.38
2022-11-01T17:06:51.512Z,65.72
2022-11-01T17:09:36.385Z,65.36
2022-11-01T17:12:21.314Z,65.56
2022-11-01T17:15:06.913Z,66.00
2022-11-01T17:17:52.292Z,66.51
2022-11-01T17:20:39.194Z,66.69
2022-11-01T17:23:25.705Z,67.59
2022-11-01T17:26:11.826Z,68.08
2022-11-01T17:28:57.001Z,69.28
2022-11-01T17:31:42.165Z,69.66
2022-11-01T17:34:27.554Z,69.96
2022-11-01T17:37:15.961Z,69.89
2022-11-01T17:40:01.566Z,70.11
2022-11-01T17:42:47.021Z,70.21
2022-11-01T17:45:32.200Z,70.59
2022-11-01T17:48:18.757Z,71.06
2022-11-01T17:51:03.841Z,70.59
2022-11-01T17:53:56.476Z,70.15
2022-11-01T17:56:41.608Z,69.66
2022-11-01T17:59:26.983Z,69.28
2022-11-01T18:02:11.865Z,68.25
2022-11-01T18:04:57.165Z,67.39
2022-11-01T18:07:44.535Z,67.40
2022-11-01T18:10:38.438Z,67.67
2022-11-01T18:13:29.835Z,67.61
2022-11-01T18:16:26.672Z,67.46
2022-11-01T18:19:19.237Z,66.95
2022-11-01T18:22:16.930Z,67.10
2022-11-01T18:25:22.257Z,66.87
2022-11-01T18:28:20.526Z,67.15
2022-11-01T18:31:25.625Z,67.24
2022-11-01T18:34:22.740Z,67.34
2022-11-01T18:37:21.442Z,67.59
2022-11-01T18:40:18.605Z,67.65
2022-11-01T18:43:07.957Z,67.45
2022-11-01T18:46:22.756Z,67.77
2022-11-01T18:49:01.050Z,67.69
2022-11-01T18:51:46.274Z,67.71
2022-11-01T18:54:31.409Z,68.03
2022-11-01T18:57:17.824Z,68.37
2022-11-01T19:00:12.450Z,68.63
2022-11-01T19:02:59.650Z,68.70
2022-11-01T19:05:44.835Z,69.05
2022-11-01T19:08:29.805Z,68.72
2022-11-01T19:11:16.155Z,69.32
2022-11-01T19:14:02.902Z,69.61
2022-11-01T19:16:47.941Z,69.61
2022-11-01T19:19:36.443Z,69.67
2022-11-01T19:22:31.838Z,69.62
2022-11-01T19:25:27.949Z,70.26
2022-11-01T19:28:34.931Z,70.47
2022-11-01T19:31:30.820Z,70.52
2022-11-01T19:34:25.448Z,70.52
2022-11-01T19:37:31.823Z,70.54
2022-11-01T19:40:28.203Z,70.97
2022-11-01T19:43:16.042Z,71.10
2022-11-01T19:46:01.372Z,71.11
2022-11-01T19:48:47.649Z,71.81
2022-11-01T19:51:32.693Z,72.02
2022-11-01T19:54:18.168Z,72.00
2022-11-01T19:57:17.441Z,72.48
2022-11-01T20:00:18.875Z,72.83
2022-11-01T20:03:14.195Z,73.03
2022-11-01T20:05:59.731Z,73.27
2022-11-01T20:08:45.074Z,73.69
2022-11-01T20:11:31.728Z,74.08
2022-11-01T20:14:17.008Z,74.00
2022-11-01T20:17:02.776Z,73.97
2022-11-01T20:19:47.675Z,74.54
2022-11-01T20:22:34.128Z,74.67
2022-11-01T20:25:19.523Z,74.55
2022-11-01T20:28:06.073Z,74.83
2022-11-01T20:30:51.849Z,75.12
2022-11-01T20:33:36.947Z,75.07
2022-11-01T20:36:22.068Z,75.44
2022-11-01T20:39:09.219Z,75.37
2022-11-01T20:41:56.729Z,75.80
2022-11-01T20:44:42.132Z,75.69
2022-11-01T20:47:27.428Z,75.92
2022-11-01T20:50:15.011Z,76.12
2022-11-01T20:53:00.057Z,76.18
2022-11-01T20:55:45.624Z,76.72
2022-11-01T20:58:30.981Z,76.67
2022-11-01T21:01:18.067Z,77.04
2022-11-01T21:04:10.675Z,77.12
2022-11-01T21:06:56.138Z,77.37
2022-11-01T21:09:42.945Z,77.66
2022-11-01T21:12:48.211Z,77.64
2022-11-01T21:15:39.569Z,78.35
2022-11-01T21:18:32.622Z,78.50
2022-11-01T21:21:17.745Z,78.35
2022-11-01T21:24:25.700Z,78.74
2022-11-01T21:27:10.922Z,79.02
2022-11-01T21:30:15.111Z,79.38
2022-11-01T21:33:00.254Z,79.23
2022-11-01T21:35:45.559Z,79.56
2022-11-01T21:38:35.505Z,79.65
2022-11-01T21:41:23.286Z,79.80
2022-11-01T21:44:23.592Z,79.97
2022-11-01T21:47:08.511Z,79.81
2022-11-01T21:49:54.053Z,79.90
2022-11-01T21:52:39.397Z,79.81
2022-11-01T21:55:24.251Z,79.91
2022-11-01T21:58:09.807Z,80.14
2022-11-01T22:00:55.365Z,80.34
2022-11-01T22:03:40.524Z,80.68
2022-11-01T22:06:26.043Z,80.40
2022-11-01T22:09:11.552Z,80.37
2022-11-01T22:11:57.181Z,80.78
2022-11-01T22:14:42.270Z,80.99
2022-11-01T22:17:27.632Z,80.95
2022-11-01T22:20:12.581Z,80.72
2022-11-01T22:22:57.545Z,81.09
2022-11-01T22:25:42.614Z,81.34
2022-11-01T22:28:27.416Z,81.53
2022-11-01T22:31:13.209Z,81.34
2022-11-01T22:33:58.413Z,81.57
2022-11-01T22:36:43.785Z,81.38
2022-11-01T22:39:29.785Z,81.68
2022-11-01T22:42:15.981Z,81.64
2022-11-01T22:45:00.859Z,82.04
2022-11-01T22:47:46.565Z,81.97
2022-11-01T22:50:31.489Z,81.75
2022-11-01T22:53:22.396Z,82.10
2022-11-01T22:56:11.328Z,82.01
2022-11-01T22:58:56.717Z,82.16
2022-11-01T23:01:42.876Z,82.13
2022-11-01T23:04:28.083Z,82.27
2022-11-01T23:07:44.745Z,82.31
2022-11-01T23:10:33.736Z,82.38
2022-11-01T23:13:30.114Z,82.46
2022-11-01T23:16:45.015Z,82.34
2022-11-01T23:19:30.330Z,82.42
2022-11-01T23:22:19.707Z,82.59
2022-11-01T23:25:05.898Z,82.34
2022-11-01T23:27:50.990Z,82.00
2022-11-01T23:30:36.414Z,81.93
2022-11-01T23:33:22.253Z,81.50
2022-11-01T23:36:40.321Z,81.57
2022-11-01T23:39:32.900Z,81.81
2022-11-01T23:42:21.087Z,81.81
2022-11-01T23:45:21.860Z,81.36
2022-11-01T23:48:09.070Z,81.39
2022-11-01T23:50:54.065Z,81.16
2022-11-01T23:53:40.527Z,81.46
2022-11-01T23:56:25.861Z,81.18
2022-11-01T23:59:11.040Z,81.32
